Time;durP1;ratioP1;P1;durP2;ratioP2;P2;SDS_P1;SDS_P2;PMS_P1;PMS_P2;Temp;Humidity;BMP_temperature;BMP_pressure;BME280_temperature;BME280_humidity;BME280_pressure;Samples;Min_cycle;Max_cycle;Signal;HPM_P1;HPM_P2
2021/08/14 00:01:06;;;;;;;9.56;4.46;;;;;;;22.83;42.52;100014.81;319657;109;2840995;-73
2021/08/14 00:02:18;;;;;;;8.14;4.02;;;;;;;22.90;42.64;100020.05;391469;104;1986020;-75
2021/08/14 00:03:23;;;;;;;6.90;4.00;;;;;;;22.76;42.48;100017.88;375953;107;1963030;-74
2021/08/14 00:04:31;;;;;;;7.42;4.18;;;;;;;22.76;42.56;100017.05;343911;107;2548080;-74
2021/08/14 00:05:43;;;;;;;10.59;5.23;;;;;;;22.86;42.57;100013.43;390108;104;2072985;-73
2021/08/14 00:06:48;;;;;;;8.17;4.23;;;;;;;22.77;42.60;100021.44;374885;106;1962232;-74
2021/08/14 00:07:53;;;;;;;8.31;4.37;;;;;;;22.73;42.68;100021.19;374641;106;1961966;-74
2021/08/14 00:09:06;;;;;;;9.09;4.80;;;;;;;22.87;42.75;100018.67;382325;108;1985917;-74
2021/08/14 00:10:12;;;;;;;9.24;4.41;;;;;;;22.74;42.67;100017.31;336374;110;1962052;-73
2021/08/14 00:11:24;;;;;;;8.47;4.09;;;;;;;22.85;42.60;100023.63;388157;106;1986957;-73
2021/08/14 00:12:29;;;;;;;7.53;4.06;;;;;;;22.76;42.49;100017.05;369128;108;1962042;-73
2021/08/14 00:13:53;;;;;;;8.50;4.46;;;;;;;22.71;42.70;100015.12;346496;110;1962011;-72
2021/08/14 00:14:58;;;;;;;7.59;4.56;;;;;;;22.70;42.64;100018.14;346441;109;1961903;-74
2021/08/14 00:16:10;;;;;;;9.88;5.55;;;;;;;22.34;42.64;99939.19;397382;104;1987028;-74
2021/08/14 00:17:16;;;;;;;10.29;5.21;;;;;;;22.73;42.55;100012.92;376089;107;1961878;-73
2021/08/14 00:18:21;;;;;;;11.32;5.21;;;;;;;22.76;42.52;100019.80;371000;107;1961949;-73
2021/08/14 00:19:34;;;;;;;9.57;4.97;;;;;;;22.83;42.62;100014.81;344255;104;2880013;-72
2021/08/14 00:20:39;;;;;;;10.45;5.19;;;;;;;22.71;42.51;100011.55;358975;106;1962858;-71
2021/08/14 00:21:48;;;;;;;11.24;5.10;;;;;;;22.71;42.58;100012.37;350174;106;1962010;-73
2021/08/14 00:23:00;;;;;;;9.23;4.83;;;;;;;22.79;42.60;100010.98;385787;104;1985965;-71
2021/08/14 00:24:05;;;;;;;10.17;4.38;;;;;;;22.68;42.51;100012.08;361596;107;1962050;-72
2021/08/14 00:25:11;;;;;;;9.08;5.23;;;;;;;22.66;42.64;100014.31;372952;107;1961905;-73
2021/08/14 00:26:23;;;;;;;9.05;4.96;;;;;;;22.78;42.74;100012.92;386837;106;2071978;-71
2021/08/14 00:27:28;;;;;;;8.95;4.57;;;;;;;22.67;42.67;100010.44;365618;109;1969088;-72
2021/08/14 00:28:36;;;;;;;10.13;4.87;;;;;;;22.65;42.79;100018.14;359999;110;1961966;-73
2021/08/14 00:29:48;;;;;;;9.94;4.57;;;;;;;22.74;42.85;100022.00;395951;104;1986046;-72
2021/08/14 00:30:55;;;;;;;10.64;4.80;;;;;;;22.63;42.78;100012.94;379279;105;1962040;-73
2021/08/14 00:32:07;;;;;;;10.33;4.92;;;;;;;22.76;42.98;100019.80;392739;106;2071982;-72
2021/08/14 00:33:12;;;;;;;8.87;4.22;;;;;;;22.65;42.85;100021.75;370302;107;1962989;-72
2021/08/14 00:34:35;;;;;;;8.05;4.19;;;;;;;22.60;42.93;100033.59;364719;109;1962033;-72
2021/08/14 00:35:47;;;;;;;9.21;4.60;;;;;;;22.75;42.97;100023.64;392676;104;2075043;-73
2021/08/14 00:36:54;;;;;;;9.08;4.73;;;;;;;22.65;42.86;100029.16;379488;107;1971015;-72
2021/08/14 00:38:00;;;;;;;7.88;4.58;;;;;;;22.69;42.85;100022.83;376169;107;1962069;-73
2021/08/14 00:39:12;;;;;;;9.38;4.23;;;;;;;22.76;43.08;100020.63;357395;104;2668953;-73
2021/08/14 00:40:19;;;;;;;9.45;4.39;;;;;;;22.63;43.09;100028.64;374324;107;1962999;-72
2021/08/14 00:41:24;;;;;;;7.32;4.14;;;;;;;22.64;43.13;100027.52;377421;107;1961892;-72
2021/08/14 00:42:37;;;;;;;8.91;4.36;;;;;;;22.71;43.21;100031.65;394408;104;1985943;-72
2021/08/14 00:43:45;;;;;;;8.48;4.96;;;;;;;22.64;43.13;100033.84;377353;108;1961873;-72
2021/08/14 00:44:50;;;;;;;8.68;4.24;;;;;;;22.61;43.17;100037.16;374529;108;1962081;-73
2021/08/14 00:46:03;;;;;;;9.59;4.65;;;;;;;22.70;43.22;100027.22;385702;104;2997075;-73
2021/08/14 00:47:10;;;;;;;8.48;4.00;;;;;;;22.58;43.13;100030.28;381372;105;1962031;-73
2021/08/14 00:48:22;;;;;;;8.79;4.12;;;;;;;22.79;42.98;100024.75;390461;104;1986079;-74
2021/08/14 00:49:27;;;;;;;8.20;4.06;;;;;;;22.68;43.19;100040.47;370987;107;1961985;-72
2021/08/14 00:50:53;;;;;;;10.55;4.85;;;;;;;22.68;43.01;100034.96;370256;108;1962023;-73
2021/08/14 00:52:05;;;;;;;8.12;4.27;;;;;;;22.73;43.11;100029.45;336442;104;2256878;-73
2021/08/14 00:53:10;;;;;;;7.77;3.84;;;;;;;22.64;43.05;100038.53;363582;107;1962948;-72
2021/08/14 00:54:22;;;;;;;7.07;3.99;;;;;;;22.78;42.98;100039.61;389506;106;1985889;-73
2021/08/14 00:55:28;;;;;;;8.46;4.18;;;;;;;22.66;42.95;100045.42;371848;107;1960986;-73
2021/08/14 00:56:52;;;;;;;8.91;4.19;;;;;;;22.63;43.06;100036.89;354919;109;1961905;-74
2021/08/14 00:58:04;;;;;;;7.91;4.25;;;;;;;22.69;43.23;100038.53;371323;108;2074025;-72
2021/08/14 00:59:09;;;;;;;9.64;4.75;;;;;;;22.59;43.27;100037.42;358684;110;1962008;-71
2021/08/14 01:00:16;;;;;;;8.83;4.44;;;;;;;22.56;43.30;100040.73;367610;110;1961963;-72
2021/08/14 01:01:25;;;;;;;9.07;4.02;;;;;;;22.59;43.28;100042.11;319294;110;2752074;-73
2021/08/14 01:02:38;;;;;;;8.00;3.98;;;;;;;22.70;43.34;100043.75;390771;104;1986893;-71
2021/08/14 01:03:44;;;;;;;7.95;3.56;;;;;;;22.58;43.33;100044.05;366884;108;1961927;-73
2021/08/14 01:04:56;;;;;;;8.03;4.17;;;;;;;22.68;43.36;100037.72;386849;104;2916966;-73
2021/08/14 01:06:02;;;;;;;9.09;4.33;;;;;;;22.44;43.57;100036.61;366307;106;2882004;-73
2021/08/14 01:07:16;;;;;;;7.07;3.91;;;;;;;22.48;43.69;100034.97;395901;104;1965906;-72
2021/08/14 01:08:22;;;;;;;9.09;4.78;;;;;;;22.31;43.85;100032.50;370996;107;1969991;-72
2021/08/14 01:09:46;;;;;;;10.64;5.29;;;;;;;22.31;43.87;100033.32;372997;107;1961899;-72
2021/08/14 01:10:59;;;;;;;8.29;5.01;;;;;;;22.42;44.16;100030.58;379588;104;1974029;-72
2021/08/14 01:12:14;;;;;;;9.48;4.89;;;;;;;22.41;44.65;100032.47;393960;104;1985771;-72
2021/08/14 01:13:39;;;;;;;11.10;4.91;;;;;;;22.25;44.80;100037.15;370309;109;1964052;-72
2021/08/14 01:14:51;;;;;;;9.88;4.53;;;;;;;22.37;44.83;100034.14;396426;104;1985937;-73
2021/08/14 01:15:57;;;;;;;12.29;4.26;;;;;;;22.25;44.42;100030.83;373100;106;1962010;-73
2021/08/14 01:17:21;;;;;;;7.09;3.87;;;;;;;22.26;44.31;100036.07;380484;105;1963941;-75
2021/08/14 01:18:36;;;;;;;7.97;4.57;;;;;;;22.41;44.33;100039.91;396151;104;1961935;-74
2021/08/14 01:19:43;;;;;;;9.86;4.17;;;;;;;22.27;44.32;100039.64;376532;107;1971822;-73
2021/08/14 01:20:56;;;;;;;10.80;4.77;;;;;;;22.41;44.24;100040.73;374716;109;1995103;-72
2021/08/14 01:22:03;;;;;;;7.34;4.12;;;;;;;22.29;44.20;100041.02;356456;113;1962984;-73
2021/08/14 01:23:27;;;;;;;11.15;4.82;;;;;;;22.30;44.10;100048.16;347013;115;1961992;-73
2021/08/14 01:24:41;;;;;;;8.48;4.19;;;;;;;22.41;44.41;100043.48;393519;106;1986019;-74
2021/08/14 01:26:02;;;;;;;8.36;4.72;;;;;;;22.26;44.37;100036.07;359259;108;1965030;-72
2021/08/14 01:27:16;;;;;;;8.69;4.63;;;;;;;22.38;44.87;100036.60;395191;103;1986097;-74
2021/08/14 01:28:21;;;;;;;9.87;4.88;;;;;;;22.26;44.58;100044.32;303294;107;2290929;-73
2021/08/14 01:29:45;;;;;;;9.79;4.39;;;;;;;22.24;44.80;100038.27;371630;108;1960677;-74
2021/08/14 01:30:59;;;;;;;12.58;5.78;;;;;;;22.48;45.09;100045.98;391141;104;2072003;-75
2021/08/14 01:32:09;;;;;;;11.18;5.64;;;;;;;22.42;44.98;100036.08;374086;107;1961944;-73
2021/08/14 01:33:21;;;;;;;12.21;5.03;;;;;;;22.35;45.62;100044.59;383802;106;1986957;-73
2021/08/14 01:34:36;;;;;;;10.67;5.23;;;;;;;22.33;45.56;100044.03;389803;104;2073871;-72
2021/08/14 01:36:02;;;;;;;8.03;4.12;;;;;;;22.22;45.61;100042.39;375329;107;1961956;-73
2021/08/14 01:37:14;;;;;;;8.20;4.47;;;;;;;22.30;45.37;100039.09;390801;106;1987091;-73
2021/08/14 01:38:19;;;;;;;10.22;4.98;;;;;;;22.19;45.33;100038.25;367377;107;1961955;-74
2021/08/14 01:39:43;;;;;;;11.82;4.55;;;;;;;22.17;45.59;100044.02;330543;111;2586012;-73
2021/08/14 01:40:55;;;;;;;11.59;5.66;;;;;;;22.26;45.66;100044.32;399481;101;2072019;-72
2021/08/14 01:42:07;;;;;;;11.04;5.46;;;;;;;22.25;46.13;100039.08;396380;104;1986989;-73
2021/08/14 01:43:13;;;;;;;8.77;4.43;;;;;;;22.11;45.73;100038.77;375101;107;1964090;-73
2021/08/14 01:44:27;;;;;;;9.62;4.66;;;;;;;22.21;45.70;100046.25;392542;101;2070667;-72
2021/08/14 01:45:32;;;;;;;8.93;4.24;;;;;;;22.09;45.57;100041.78;375191;104;1967748;-72
2021/08/14 01:46:55;;;;;;;10.21;4.78;;;;;;;22.08;45.56;100040.14;375883;104;1960648;-72
2021/08/14 01:48:01;;;;;;;8.17;4.73;;;;;;;22.09;45.49;100040.96;368449;105;1960799;-73
2021/08/14 01:49:13;;;;;;;8.78;4.96;;;;;;;22.21;45.59;100038.81;402857;104;1984793;-72
2021/08/14 01:50:19;;;;;;;12.13;4.98;;;;;;;22.08;45.55;100037.39;379906;104;1960812;-73
2021/08/14 01:51:25;;;;;;;10.49;5.26;;;;;;;22.08;45.49;100042.89;379675;105;1960826;-72
2021/08/14 01:52:30;;;;;;;9.66;5.21;;;;;;;22.08;45.47;100042.89;344310;105;1965830;-72
2021/08/14 01:53:48;;;;;;;9.24;4.44;;;;;;;22.20;45.71;100045.40;398009;102;1984773;-72
2021/08/14 01:55:01;;;;;;;9.93;5.32;;;;;;;22.22;45.82;100042.39;354774;104;2712938;-73
2021/08/14 01:56:06;;;;;;;9.86;4.99;;;;;;;22.09;45.70;100044.53;366291;105;1963903;-72
2021/08/14 01:57:12;;;;;;;7.86;4.41;;;;;;;22.10;45.74;100048.95;361782;105;1962013;-72
2021/08/14 01:58:24;;;;;;;8.13;4.63;;;;;;;22.23;45.77;100041.27;396308;103;1985993;-72
2021/08/14 01:59:29;;;;;;;9.85;4.44;;;;;;;22.11;45.70;100041.52;375912;107;1963071;-72
2021/08/14 02:00:36;;;;;;;9.43;4.82;;;;;;;22.12;45.77;100051.41;364279;106;2962913;-73
2021/08/14 02:01:48;;;;;;;8.36;4.94;;;;;;;22.24;45.90;100040.20;391039;106;1985972;-72
2021/08/14 02:02:55;;;;;;;8.07;4.38;;;;;;;22.10;45.93;100043.45;366816;109;1962007;-75
2021/08/14 02:04:08;;;;;;;7.24;4.36;;;;;;;22.20;46.24;100050.08;369768;104;1985996;-72
2021/08/14 02:05:13;;;;;;;7.58;4.26;;;;;;;22.05;46.19;100043.44;349935;107;1962082;-73
2021/08/14 02:06:38;;;;;;;8.99;4.16;;;;;;;22.06;46.24;100041.51;325534;107;2895051;-72
2021/08/14 02:07:43;;;;;;;14.36;6.83;;;;;;;22.04;46.27;100035.45;357665;107;1961865;-72
2021/08/14 02:08:49;;;;;;;10.34;5.63;;;;;;;22.02;46.24;100030.23;364495;108;1961970;-71
2021/08/14 02:10:01;;;;;;;11.31;6.16;;;;;;;22.09;46.33;100039.03;391007;106;1984645;-73
2021/08/14 02:11:20;;;;;;;9.99;5.68;;;;;;;21.98;46.25;100031.86;365804;109;1965052;-72
2021/08/14 02:12:33;;;;;;;10.33;5.74;;;;;;;22.08;46.37;100034.64;394660;104;1986009;-73
2021/08/14 02:13:43;;;;;;;10.21;5.24;;;;;;;22.00;46.20;100037.93;374975;106;1962068;-73
2021/08/14 02:15:08;;;;;;;9.73;5.34;;;;;;;22.08;46.01;100045.64;375586;105;1961920;-73
2021/08/14 02:16:21;;;;;;;8.40;4.95;;;;;;;22.11;46.00;100038.77;382987;104;1973003;-72
2021/08/14 02:17:26;;;;;;;9.11;5.22;;;;;;;22.07;45.86;100034.89;374204;106;1963900;-72
2021/08/14 02:18:31;;;;;;;11.25;5.64;;;;;;;22.08;45.62;100036.56;371522;108;1961972;-72
2021/08/14 02:19:45;;;;;;;10.49;5.03;;;;;;;22.22;45.64;100042.39;387055;106;1985992;-73
2021/08/14 02:20:51;;;;;;;10.95;5.44;;;;;;;22.05;45.33;100035.19;365803;107;1963968;-74
2021/08/14 02:21:57;;;;;;;10.29;5.66;;;;;;;22.07;45.26;100040.40;363682;108;1961091;-74
2021/08/14 02:23:02;;;;;;;10.38;5.64;;;;;;;22.09;45.27;100035.45;369570;109;1960711;-74
2021/08/14 02:24:15;;;;;;;9.99;5.34;;;;;;;22.16;45.14;100038.77;411369;101;1984749;-73
2021/08/14 02:25:20;;;;;;;8.88;5.33;;;;;;;22.06;45.08;100039.58;380839;103;2943827;-73
2021/08/14 02:26:27;;;;;;;10.17;5.28;;;;;;;22.01;45.13;100038.75;355802;103;1965021;-73
2021/08/14 02:27:39;;;;;;;9.52;5.57;;;;;;;22.08;45.13;100034.64;382764;106;2077046;-74
2021/08/14 02:28:44;;;;;;;13.05;5.73;;;;;;;21.98;44.95;100045.62;363171;109;1962032;-72
2021/08/14 02:29:49;;;;;;;11.53;6.24;;;;;;;21.64;45.65;100048.83;361290;111;1961990;-73
2021/08/14 02:31:04;;;;;;;10.53;4.94;;;;;;;21.82;45.86;100042.01;351940;104;2347055;-73
2021/08/14 02:32:11;;;;;;;10.36;5.62;;;;;;;21.83;45.29;100048.33;375447;106;1962047;-73
2021/08/14 02:33:16;;;;;;;11.70;6.45;;;;;;;21.88;45.12;100042.84;367626;109;1963981;-74
2021/08/14 02:34:28;;;;;;;10.57;5.83;;;;;;;21.97;45.16;100041.23;391536;106;1986031;-73
2021/08/14 02:35:33;;;;;;;11.82;5.66;;;;;;;21.89;44.97;100044.52;368430;107;1962013;-72
2021/08/14 02:36:42;;;;;;;12.75;6.27;;;;;;;21.89;44.96;100050.02;364839;107;1961981;-72
2021/08/14 02:37:48;;;;;;;10.84;5.77;;;;;;;21.87;45.09;100041.20;355979;109;2878054;-73
2021/08/14 02:39:00;;;;;;;10.25;6.05;;;;;;;21.94;45.26;100045.35;396403;104;1973988;-73
2021/08/14 02:40:08;;;;;;;10.89;5.95;;;;;;;21.82;45.37;100039.26;380830;105;1961968;-73
2021/08/14 02:41:20;;;;;;;10.16;5.67;;;;;;;21.90;45.43;100037.91;389232;106;1985931;-73
2021/08/14 02:42:26;;;;;;;10.39;6.72;;;;;;;21.74;45.39;100037.05;364878;109;1963029;-72
2021/08/14 02:43:49;;;;;;;12.10;6.96;;;;;;;21.74;45.34;100037.86;354068;110;1962992;-74
2021/08/14 02:45:05;;;;;;;10.93;6.27;;;;;;;21.83;45.78;100035.44;396646;104;1986047;-75
2021/08/14 02:46:09;;;;;;;12.82;6.02;;;;;;;21.69;45.64;100032.34;327707;107;2053898;-73
2021/08/14 02:47:14;;;;;;;11.48;5.93;;;;;;;21.70;45.64;100033.20;352856;105;1962036;-73
2021/08/14 02:48:20;;;;;;;11.77;5.94;;;;;;;21.71;45.52;100034.84;360383;107;1961967;-72
2021/08/14 02:49:32;;;;;;;13.96;7.00;;;;;;;21.80;45.74;100035.95;389581;106;1985962;-73
2021/08/14 02:50:42;;;;;;;10.13;5.97;;;;;;;21.67;45.69;100030.96;355666;108;2921952;-72
2021/08/14 02:51:47;;;;;;;9.12;5.71;;;;;;;21.67;45.67;100031.81;362768;110;1962036;-71
2021/08/14 02:52:52;;;;;;;10.76;5.93;;;;;;;21.67;45.62;100030.96;365514;110;1962087;-72
2021/08/14 02:54:04;;;;;;;11.62;6.16;;;;;;;21.80;45.67;100032.38;384822;104;2974020;-72
2021/08/14 02:55:10;;;;;;;12.72;7.51;;;;;;;21.69;45.67;100035.09;365590;107;2921986;-73
2021/08/14 02:56:16;;;;;;;12.79;6.62;;;;;;;21.69;45.92;100034.27;328600;107;2346045;-72
2021/08/14 02:57:28;;;;;;;12.93;7.28;;;;;;;21.77;46.19;100036.49;392818;104;2072977;-72
2021/08/14 02:58:33;;;;;;;12.44;6.74;;;;;;;21.67;46.02;100034.56;373285;107;1962041;-72
2021/08/14 02:59:45;;;;;;;11.24;5.71;;;;;;;21.80;45.92;100035.95;393735;104;1985986;-72
2021/08/14 03:00:51;;;;;;;12.97;6.55;;;;;;;21.70;45.75;100035.95;347629;105;1961900;-72
2021/08/14 03:02:14;;;;;;;10.01;5.60;;;;;;;21.46;46.06;100039.16;373168;105;1964916;-72
2021/08/14 03:03:20;;;;;;;10.23;6.20;;;;;;;21.37;46.17;100037.16;366787;108;1964021;-72
2021/08/14 03:04:33;;;;;;;11.02;5.84;;;;;;;21.43;46.20;100041.60;396320;103;2072968;-73
2021/08/14 03:05:38;;;;;;;9.64;5.39;;;;;;;21.37;46.22;100043.47;374596;105;1962052;-72
2021/08/14 03:06:43;;;;;;;10.02;5.28;;;;;;;21.29;46.12;100036.56;374216;107;1964929;-73
2021/08/14 03:07:48;;;;;;;10.39;5.37;;;;;;;21.20;46.34;100035.44;375299;107;1962893;-72
2021/08/14 03:09:02;;;;;;;10.35;4.71;;;;;;;21.38;46.06;100028.69;395698;103;1987047;-74
2021/08/14 03:10:09;;;;;;;9.71;4.83;;;;;;;21.47;45.47;100035.31;346605;107;2448063;-74
2021/08/14 03:11:14;;;;;;;8.85;4.66;;;;;;;21.53;45.22;100033.40;371778;108;1961983;-72
2021/08/14 03:12:20;;;;;;;8.28;4.12;;;;;;;21.56;45.14;100037.53;371776;109;1961972;-73
2021/08/14 03:13:33;;;;;;;9.78;5.16;;;;;;;21.68;45.08;100044.45;370672;106;2905024;-72
2021/08/14 03:14:38;;;;;;;10.06;4.78;;;;;;;21.52;45.10;100031.76;331000;109;2008064;-72
2021/08/14 03:15:52;;;;;;;9.51;5.04;;;;;;;21.68;45.08;100040.88;378002;108;1988109;-72
2021/08/14 03:16:59;;;;;;;11.26;5.66;;;;;;;21.60;45.08;100035.91;334860;111;2424353;-73
2021/08/14 03:18:23;;;;;;;8.02;4.75;;;;;;;21.60;45.00;100039.48;353777;111;1962012;-72
2021/08/14 03:19:35;;;;;;;9.56;5.39;;;;;;;21.68;45.02;100041.70;386774;106;1962981;-72
2021/08/14 03:20:40;;;;;;;9.63;5.02;;;;;;;21.44;44.87;100019.36;369217;110;1970053;-72
2021/08/14 03:21:46;;;;;;;10.12;4.43;;;;;;;21.61;44.86;100041.13;370757;109;1961938;-72
2021/08/14 03:22:51;;;;;;;7.93;4.69;;;;;;;21.61;44.67;100043.87;369544;109;1962978;-71
2021/08/14 03:23:57;;;;;;;8.83;4.78;;;;;;;21.61;44.48;100049.38;365756;110;1962001;-72
2021/08/14 03:25:10;;;;;;;9.11;5.25;;;;;;;21.81;44.39;100040.37;350731;104;2742991;-70
2021/08/14 03:26:15;;;;;;;10.52;5.07;;;;;;;21.70;44.45;100038.70;353395;107;1962014;-73
2021/08/14 03:27:21;;;;;;;8.39;4.84;;;;;;;21.66;44.53;100040.32;375224;107;1961891;-72
2021/08/14 03:28:26;;;;;;;9.08;4.79;;;;;;;21.67;44.58;100039.21;371649;107;1962041;-72
2021/08/14 03:29:39;;;;;;;10.19;5.65;;;;;;;21.78;44.59;100031.81;392730;104;2070951;-72
2021/08/14 03:30:46;;;;;;;9.80;5.69;;;;;;;21.69;44.62;100042.52;328401;107;2774025;-72
2021/08/14 03:31:51;;;;;;;10.33;5.42;;;;;;;21.63;44.73;100029.87;346816;107;1962010;-71
2021/08/14 03:32:56;;;;;;;10.21;6.03;;;;;;;21.63;44.69;100038.11;364502;109;1961962;-73
2021/08/14 03:34:08;;;;;;;11.40;5.92;;;;;;;21.73;44.73;100025.22;379353;108;1986927;-73
2021/08/14 03:35:15;;;;;;;9.24;5.17;;;;;;;21.57;44.75;100028.20;358745;110;1962984;-72
2021/08/14 03:36:21;;;;;;;9.01;5.56;;;;;;;21.50;44.94;100028.45;355721;113;1961985;-72
2021/08/14 03:37:27;;;;;;;9.29;5.42;;;;;;;21.42;45.12;100034.47;313700;113;2885036;-73
2021/08/14 03:38:32;;;;;;;9.62;4.94;;;;;;;21.44;45.03;100035.03;326917;113;1961985;-73
2021/08/14 03:39:44;;;;;;;9.08;5.43;;;;;;;21.51;45.13;100032.84;400417;104;1986035;-73
2021/08/14 03:40:50;;;;;;;9.80;5.21;;;;;;;21.38;45.19;100033.33;380816;105;1962083;-73
2021/08/14 03:41:55;;;;;;;10.50;5.61;;;;;;;21.39;45.17;100038.58;381950;105;1962014;-73
2021/08/14 03:43:00;;;;;;;10.34;6.10;;;;;;;21.43;45.16;100028.68;378945;105;1962043;-72
2021/08/14 03:44:13;;;;;;;9.24;5.78;;;;;;;21.54;45.19;100029.58;370064;104;2436944;-73
2021/08/14 03:45:18;;;;;;;9.34;5.39;;;;;;;21.48;45.14;100027.88;360724;107;1960827;-73
2021/08/14 03:46:31;;;;;;;10.87;6.34;;;;;;;21.64;45.09;100037.83;393289;104;1985880;-72
2021/08/14 03:47:37;;;;;;;11.73;5.59;;;;;;;21.51;45.17;100028.19;376073;106;1964687;-73
2021/08/14 03:49:00;;;;;;;11.66;6.76;;;;;;;21.49;45.18;100030.37;371777;106;1961890;-73
2021/08/14 03:50:14;;;;;;;9.82;5.96;;;;;;;21.74;44.85;100029.61;349637;101;2792844;-74
2021/08/14 03:51:19;;;;;;;9.72;6.08;;;;;;;21.69;44.83;100032.34;358762;107;1960672;-73
2021/08/14 03:52:24;;;;;;;10.69;5.62;;;;;;;21.64;45.00;100026.83;361928;105;1960888;-74
2021/08/14 03:53:31;;;;;;;11.05;5.70;;;;;;;21.86;44.63;100026.63;368649;108;1960814;-72
2021/08/14 03:54:46;;;;;;;9.53;5.54;;;;;;;21.95;44.75;100024.98;362813;104;2589786;-72
2021/08/14 03:55:51;;;;;;;11.81;6.26;;;;;;;21.88;44.60;100029.09;373447;105;1961748;-73
2021/08/14 03:56:58;;;;;;;14.99;6.31;;;;;;;21.76;44.87;100028.53;372722;106;1960799;-72
2021/08/14 03:58:10;;;;;;;9.76;5.56;;;;;;;22.02;44.72;100032.98;391697;104;1960721;-73
2021/08/14 03:59:15;;;;;;;11.92;7.11;;;;;;;21.73;45.04;100033.47;373011;108;1967698;-74
2021/08/14 04:00:28;;;;;;;11.91;6.09;;;;;;;21.86;45.08;100032.13;378621;105;1984701;-73
2021/08/14 04:01:34;;;;;;;10.94;6.09;;;;;;;21.98;44.56;100028.30;357263;114;1960805;-73
2021/08/14 04:02:58;;;;;;;11.05;5.84;;;;;;;22.06;44.32;100031.33;354469;114;1964973;-72
2021/08/14 04:04:06;;;;;;;10.63;6.47;;;;;;;22.05;44.29;100032.44;321662;114;2593014;-73
2021/08/14 04:05:18;;;;;;;11.06;6.90;;;;;;;22.19;44.34;100041.01;393195;103;2072016;-75
2021/08/14 04:06:25;;;;;;;8.92;5.69;;;;;;;21.68;44.27;99975.72;377587;108;1962032;-73
2021/08/14 04:07:31;;;;;;;9.94;6.45;;;;;;;21.96;44.41;100036.81;325654;107;2825992;-73
2021/08/14 04:08:45;;;;;;;11.31;5.94;;;;;;;22.15;44.43;100031.63;396009;104;1962017;-73
2021/08/14 04:09:50;;;;;;;13.03;6.83;;;;;;;22.05;44.37;100035.19;382112;105;1968941;-72
2021/08/14 04:10:57;;;;;;;11.40;6.35;;;;;;;22.05;44.32;100029.69;330860;105;2813043;-73
2021/08/14 04:12:02;;;;;;;12.78;7.59;;;;;;;22.10;44.33;100037.95;355715;105;1961948;-73
2021/08/14 04:13:08;;;;;;;12.09;6.79;;;;;;;22.15;44.23;100037.95;375780;105;1962040;-74
2021/08/14 04:14:13;;;;;;;10.99;6.93;;;;;;;22.16;44.17;100039.59;378778;105;1961894;-74
2021/08/14 04:15:25;;;;;;;11.86;6.52;;;;;;;22.32;44.21;100034.96;390603;106;1985947;-73
2021/08/14 04:16:32;;;;;;;11.63;6.87;;;;;;;22.21;44.16;100036.06;330014;107;2714996;-74
2021/08/14 04:17:38;;;;;;;13.84;6.63;;;;;;;22.24;44.19;100041.02;346874;107;1962051;-74
2021/08/14 04:18:50;;;;;;;12.87;7.81;;;;;;;22.40;44.13;100039.09;393511;104;2072076;-72
2021/08/14 04:19:55;;;;;;;12.14;6.09;;;;;;;22.36;44.09;100040.73;376359;107;1962064;-74
2021/08/14 04:21:08;;;;;;;10.01;6.12;;;;;;;22.52;44.06;100041.55;362958;104;2578967;-75
2021/08/14 04:22:13;;;;;;;19.86;8.09;;;;;;;22.41;44.07;100040.73;341365;107;1961925;-75
2021/08/14 04:23:37;;;;;;;10.99;6.38;;;;;;;22.44;44.13;100044.86;372253;107;1962045;-74
2021/08/14 04:24:49;;;;;;;13.60;7.42;;;;;;;22.61;44.25;100048.17;388985;106;1960744;-75
2021/08/14 04:25:54;;;;;;;13.25;6.67;;;;;;;22.55;44.04;100049.29;371076;109;1960766;-74
2021/08/14 04:27:00;;;;;;;13.12;6.66;;;;;;;22.55;43.94;100041.84;370257;108;1960827;-73
2021/08/14 04:28:05;;;;;;;15.23;8.79;;;;;;;22.60;43.89;100044.60;363021;108;1960893;-74
2021/08/14 04:29:37;;;;;;;14.82;9.06;;;;;;;22.73;44.09;100042.37;399411;103;1984807;-74
2021/08/14 04:30:44;;;;;;;19.01;8.76;;;;;;;22.64;44.09;100046.80;380091;105;1961719;-75
2021/08/14 04:31:56;;;;;;;15.81;8.56;;;;;;;22.55;44.62;100041.03;391568;104;2070939;-74
2021/08/14 04:33:01;;;;;;;14.37;7.64;;;;;;;22.52;44.57;100039.66;379119;105;1968934;-73
2021/08/14 04:34:06;;;;;;;15.18;8.63;;;;;;;22.60;44.46;100050.11;377485;105;1961051;-74
2021/08/14 04:35:19;;;;;;;18.79;8.79;;;;;;;22.76;44.40;100042.66;395275;104;1988916;-74
2021/08/14 04:36:26;;;;;;;14.43;8.21;;;;;;;22.69;44.33;100049.55;331289;107;2880011;-74
2021/08/14 04:37:39;;;;;;;15.91;8.34;;;;;;;22.82;44.40;100047.05;390357;106;1965056;-74
2021/08/14 04:38:44;;;;;;;12.89;7.37;;;;;;;22.75;44.28;100063.02;364447;110;1970065;-74
2021/08/14 04:40:11;;;;;;;19.39;8.28;;;;;;;22.82;44.24;100051.73;360184;112;1964984;-74
2021/08/14 04:41:17;;;;;;;13.32;6.82;;;;;;;22.84;44.21;100055.05;310260;110;2125021;-73
2021/08/14 04:42:29;;;;;;;11.78;6.04;;;;;;;23.03;44.36;100049.80;383302;106;2076038;-73
2021/08/14 04:43:37;;;;;;;13.51;6.54;;;;;;;22.97;44.31;100053.65;360326;111;1970098;-73
2021/08/14 04:44:49;;;;;;;12.89;7.67;;;;;;;23.13;44.31;100051.69;396033;104;1986040;-75
2021/08/14 04:45:55;;;;;;;11.14;6.73;;;;;;;23.05;44.27;100053.11;372749;105;1962074;-74
2021/08/14 04:47:18;;;;;;;12.07;7.26;;;;;;;23.08;44.26;100044.28;361420;108;1961002;-72
2021/08/14 04:48:30;;;;;;;19.59;9.02;;;;;;;23.26;44.26;100045.61;389461;104;2072010;-75
2021/08/14 04:49:35;;;;;;;15.47;7.74;;;;;;;23.20;44.15;100052.22;363870;112;1969945;-74
2021/08/14 04:50:48;;;;;;;14.71;7.58;;;;;;;23.34;44.20;100055.20;361610;103;2612015;-75
2021/08/14 04:51:54;;;;;;;16.06;7.54;;;;;;;23.29;44.09;100058.83;337260;105;2028905;-74
2021/08/14 04:53:18;;;;;;;12.60;6.38;;;;;;;23.39;43.92;100052.43;325317;106;2857991;-74
2021/08/14 04:54:24;;;;;;;13.99;6.71;;;;;;;23.46;43.94;100050.20;330430;107;2049050;-73
2021/08/14 04:55:36;;;;;;;12.15;5.94;;;;;;;23.64;44.05;100055.09;384589;106;1985942;-72
2021/08/14 04:56:42;;;;;;;12.09;6.88;;;;;;;23.59;43.96;100049.59;368334;108;1963980;-73
2021/08/14 04:57:48;;;;;;;10.21;6.05;;;;;;;23.65;44.02;100053.97;367774;109;1962995;-72
2021/08/14 04:59:00;;;;;;;11.55;5.88;;;;;;;23.76;44.23;100049.25;401185;104;1963835;-73
2021/08/14 05:00:06;;;;;;;13.63;6.39;;;;;;;23.74;44.11;100050.64;379750;105;1969065;-73
2021/08/14 05:01:19;;;;;;;11.11;6.34;;;;;;;23.83;44.20;100049.77;391364;104;1965020;-75
2021/08/14 05:02:25;;;;;;;15.07;7.23;;;;;;;23.67;44.27;100051.76;335730;105;2683008;-73
2021/08/14 05:03:49;;;;;;;14.03;6.89;;;;;;;23.68;44.34;100047.06;371498;108;1961970;-74
2021/08/14 05:05:02;;;;;;;17.64;7.57;;;;;;;24.07;44.07;100047.14;393683;103;1961914;-72
2021/08/14 05:06:07;;;;;;;34.92;10.00;;;;;;;23.94;43.96;100046.95;369466;109;1972322;-74
2021/08/14 05:07:20;;;;;;;27.21;9.39;;;;;;;24.07;43.92;100052.66;373495;110;1987015;-73
2021/08/14 05:08:25;;;;;;;27.24;9.43;;;;;;;23.94;43.95;100044.20;345868;113;1961913;-73
2021/08/14 05:09:50;;;;;;;27.73;9.52;;;;;;;24.06;43.79;100051.02;346334;115;1960940;-74
2021/08/14 05:11:03;;;;;;;24.26;8.49;;;;;;;24.26;43.77;100040.94;369335;104;1984651;-74
2021/08/14 05:12:09;;;;;;;28.91;9.27;;;;;;;24.22;43.70;100039.88;368613;107;1960794;-75
2021/08/14 05:13:15;;;;;;;32.42;9.64;;;;;;;24.27;43.58;100048.13;362402;109;1960722;-75
2021/08/14 05:14:20;;;;;;;29.24;8.98;;;;;;;24.30;43.63;100039.26;359381;109;1960704;-74
2021/08/14 05:15:33;;;;;;;25.19;9.14;;;;;;;24.49;43.73;100044.93;348420;104;2744909;-74
2021/08/14 05:16:40;;;;;;;23.26;7.84;;;;;;;24.44;43.52;100044.94;370939;108;1960762;-74